CheckWX is a tool to help pilots better visualize weather data.  It is not intended as a substitute for an official pre-flight weather briefing.

06:29:51 UTC

SARI METAR
Cataratas Del Iguazú International Airport
Puerto Iguazu, Argentina
Current

30 mins ago

SARI 260600Z 18006KT 4000 -RA BKN005 OVC030 11/11 Q1015
Observed
Jun-26 @ 06:00 UTC
Wind
  • 180° at 6 KTS
Visibility
4,000 meters
Flight Rules
IFR
Conditions
Light Rain
Cloud Levels
  • Broken at 500' AGL
  • Overcast at 3,000' AGL
Temperature
11°C / 52°F
Dewpoint
11°C / 52°F
Humidity
100%
Altimeter
29.97" Hg
Pressure
1014.92 hPa
Previous

1 hour ago

SARI 260500Z 18008KT 3000 RA BR BKN005 OVC030 13/13 Q1015
Observed
Jun-26 @ 05:00 UTC
Wind
  • 180° at 8 KTS
Visibility
3,000 meters
Flight Rules
IFR
Conditions
Rain, Mist
Cloud Levels
  • Broken at 500' AGL
  • Overcast at 3,000' AGL
Temperature
13°C / 55°F
Dewpoint
13°C / 55°F
Humidity
100%
Altimeter
29.97" Hg
Pressure
1014.92 hPa
Previous

2 hours ago

SARI 260400Z 18010KT 3000 RABR BKN005 OVC030 14/14 Q1015
Observed
Jun-26 @ 04:00 UTC
Wind
  • 180° at 10 KTS
Visibility
3,000 meters
Flight Rules
IFR
Conditions
Rain, Mist
Cloud Levels
  • Broken at 500' AGL
  • Overcast at 3,000' AGL
Temperature
14°C / 57°F
Dewpoint
14°C / 57°F
Humidity
100%
Altimeter
29.97" Hg
Pressure
1014.92 hPa